Time;durP1;ratioP1;P1;durP2;ratioP2;P2;SDS_P1;SDS_P2;PMS_P1;PMS_P2;Temp;Humidity;BMP_temperature;BMP_pressure;BME280_temperature;BME280_humidity;BME280_pressure;Samples;Min_cycle;Max_cycle;Signal;HPM_P1;HPM_P2
2022/05/11 00:01:17;;;;;;;6.85;3.35;;;;;;;16.11;60.73;101309.16;4786611;30;20047;-86
2022/05/11 00:03:45;;;;;;;10.43;3.42;;;;;;;14.98;61.18;101130.50;4786565;30;20031;-86
2022/05/11 00:06:10;;;;;;;8.55;3.80;;;;;;;14.98;62.58;101116.69;4786170;29;20067;-86
2022/05/11 00:08:36;;;;;;;9.45;3.67;;;;;;;16.06;63.25;101299.09;4786396;30;20104;-85
2022/05/11 00:11:04;;;;;;;7.90;3.65;;;;;;;15.11;62.74;101151.19;4785974;30;20498;-87
2022/05/11 00:14:03;;;;;;;6.72;3.47;;;;;;;16.05;63.38;101297.44;4785949;30;20389;-86
2022/05/11 00:17:03;;;;;;;6.90;3.53;;;;;;;14.78;63.31;101097.41;4785388;29;20610;-85
2022/05/11 00:19:32;;;;;;;8.00;3.83;;;;;;;15.02;64.57;101150.13;4785913;30;20043;-86
2022/05/11 00:21:57;;;;;;;9.00;4.20;;;;;;;15.11;64.18;101156.41;4788428;29;20042;-86
2022/05/11 00:24:40;;;;;;;8.15;3.65;;;;;;;15.56;63.83;101219.69;4804021;29;20039;-86
2022/05/11 00:27:14;;;;;;;8.68;3.95;;;;;;;15.92;64.26;101294.13;4803767;29;20049;-86
2022/05/11 00:29:39;;;;;;;8.38;3.80;;;;;;;15.45;64.31;101219.69;4803833;29;20035;-86
2022/05/11 00:32:05;;;;;;;8.20;3.58;;;;;;;14.72;63.91;101101.28;4803959;29;20471;-86
2022/05/11 00:34:30;;;;;;;8.73;3.90;;;;;;;15.88;64.98;101276.28;4805918;29;20039;-86
2022/05/11 00:37:04;;;;;;;9.73;4.03;;;;;;;15.06;64.55;101142.94;4790106;29;20027;-86
2022/05/11 00:39:33;;;;;;;9.13;3.78;;;;;;;14.48;63.77;101059.81;4806014;29;20552;-86
2022/05/11 00:42:05;;;;;;;8.30;3.60;;;;;;;15.77;63.87;101264.91;4805631;29;20031;-86
2022/05/11 00:44:37;;;;;;;7.95;4.05;;;;;;;15.45;63.84;101222.31;4805606;29;20130;-86
2022/05/11 00:47:14;;;;;;;7.05;4.03;;;;;;;15.83;63.59;101260.16;4806037;29;20095;-85
2022/05/11 00:49:45;;;;;;;7.22;3.70;;;;;;;15.34;62.86;101181.50;4805988;29;20484;-86
2022/05/11 00:52:51;;;;;;;;;;;;;;;;;;;;;
2022/05/11 00:55:33;;;;;;;8.32;3.85;;;;;;;15.00;62.93;101115.63;4805482;29;20027;-87
2022/05/11 00:58:22;;;;;;;7.75;3.70;;;;;;;14.65;62.57;101071.53;4789238;29;20079;-86
2022/05/11 01:00:50;;;;;;;7.03;3.63;;;;;;;15.73;62.60;101244.44;4805892;29;20050;-86
2022/05/11 01:03:36;;;;;;;6.22;3.50;;;;;;;14.65;61.50;101071.53;4805608;29;20041;-86
2022/05/11 01:06:23;;;;;;;7.72;3.60;;;;;;;15.64;61.67;101230.38;4805615;29;20563;-86
2022/05/11 01:09:00;;;;;;;10.02;3.53;;;;;;;14.39;61.32;101037.09;4805618;29;20547;-86
2022/05/11 01:11:36;;;;;;;8.20;3.30;;;;;;;14.63;61.46;101058.63;4805478;29;20045;-87
2022/05/11 01:14:08;;;;;;;7.55;3.50;;;;;;;14.98;61.35;101108.88;4805422;29;20388;-86
2022/05/11 01:16:35;;;;;;;6.55;3.53;;;;;;;15.21;61.63;101152.97;4805694;29;20038;-85
2022/05/11 01:19:00;;;;;;;7.82;3.13;;;;;;;14.79;61.55;101086.88;4805401;29;20164;-86
2022/05/11 01:21:38;;;;;;;8.50;3.75;;;;;;;14.54;61.49;101038.53;4805565;29;20121;-86
2022/05/11 01:24:27;;;;;;;7.18;3.45;;;;;;;15.21;62.23;101150.38;4805372;29;20431;-86
2022/05/11 01:27:30;;;;;;;7.63;3.47;;;;;;;15.72;62.10;101229.75;4806012;29;20471;-86
2022/05/11 01:30:15;;;;;;;6.28;3.40;;;;;;;15.23;62.21;101172.84;4808789;29;20034;-86
2022/05/11 01:32:42;;;;;;;6.95;3.55;;;;;;;14.74;62.78;101096.78;4808649;29;20092;-86
2022/05/11 01:35:32;;;;;;;9.65;3.75;;;;;;;14.65;63.28;101084.53;4808961;29;20038;-86
2022/05/11 01:38:35;;;;;;;8.07;3.25;;;;;;;15.65;62.74;101239.00;4792630;29;20031;-86
2022/05/11 01:41:03;;;;;;;5.57;3.08;;;;;;;14.54;63.30;101056.72;4808869;29;20073;-86
2022/05/11 01:46:59;;;;;;;7.32;3.45;;;;;;;14.44;63.22;101037.53;4809127;29;20108;-86
2022/05/11 01:49:38;;;;;;;7.88;3.60;;;;;;;14.75;63.14;101087.22;4791946;29;20078;-85
2022/05/11 01:52:10;;;;;;;8.10;3.15;;;;;;;14.80;63.19;101093.75;4808772;29;20432;-86
2022/05/11 01:54:35;;;;;;;6.20;3.30;;;;;;;14.85;64.23;101103.81;4808541;29;20043;-86
2022/05/11 01:57:24;;;;;;;5.50;3.20;;;;;;;15.56;63.79;101219.69;4808590;29;20093;-86
2022/05/11 01:59:49;;;;;;;7.22;3.60;;;;;;;15.53;63.60;101217.31;4808542;29;20495;-86
2022/05/11 02:02:27;;;;;;;10.05;3.33;;;;;;;14.25;63.84;101019.91;4808256;29;20089;-86
2022/05/11 02:07:51;;;;;;;6.60;3.42;;;;;;;15.21;63.90;101171.19;4808679;29;20510;-85
2022/05/11 02:10:25;;;;;;;7.65;3.47;;;;;;;15.05;64.20;101136.91;4808332;29;20089;-86
2022/05/11 02:12:51;;;;;;;6.80;3.60;;;;;;;14.76;64.06;101088.91;4791974;29;20130;-85
2022/05/11 02:15:18;;;;;;;5.75;3.20;;;;;;;15.09;64.16;101142.69;4808299;29;20031;-86
2022/05/11 02:17:51;;;;;;;7.85;3.53;;;;;;;15.13;64.04;101151.91;4808285;29;20027;-86
2022/05/11 02:20:18;;;;;;;11.00;3.63;;;;;;;14.57;64.55;101066.09;4807937;29;20424;-85
2022/05/11 02:22:51;;;;;;;5.55;3.60;;;;;;;14.27;64.46;101012.03;4808113;29;20120;-85
2022/05/11 02:25:34;;;;;;;6.80;3.78;;;;;;;14.41;64.28;101037.78;4807936;29;20042;-85
2022/05/11 02:28:02;;;;;;;5.95;3.30;;;;;;;14.30;64.76;101020.41;4808079;29;20404;-86
2022/05/11 02:30:45;;;;;;;6.88;3.90;;;;;;;15.04;64.57;101140.44;4808001;29;20027;-86
2022/05/11 02:33:30;;;;;;;10.15;4.07;;;;;;;14.26;64.46;101013.81;4807867;29;20403;-85
2022/05/11 02:36:08;;;;;;;10.63;4.10;;;;;;;14.45;64.12;101043.59;4807878;29;20391;-86
2022/05/11 02:38:34;;;;;;;5.85;3.60;;;;;;;15.41;64.58;101208.69;4806981;29;20034;-85
2022/05/11 02:41:30;;;;;;;8.05;3.83;;;;;;;15.43;64.05;101208.56;4791647;29;20087;-85
2022/05/11 02:44:20;;;;;;;7.68;3.10;;;;;;;15.42;64.18;101205.13;4807692;29;20426;-85
2022/05/11 02:46:49;;;;;;;7.00;3.83;;;;;;;14.27;64.23;101023.25;4807606;29;20041;-85
2022/05/11 02:49:18;;;;;;;7.50;3.53;;;;;;;15.22;63.85;101177.22;4807800;29;20038;-84
2022/05/11 02:51:58;;;;;;;7.88;3.63;;;;;;;14.67;63.88;101092.19;4807559;29;20035;-85
2022/05/11 02:54:32;;;;;;;6.20;3.50;;;;;;;14.67;64.25;101093.03;4807558;29;20039;-85
2022/05/11 02:57:00;;;;;;;7.47;3.20;;;;;;;14.76;64.18;101099.31;4807432;29;20388;-86
2022/05/11 02:59:41;;;;;;;7.13;3.30;;;;;;;14.91;64.60;101122.34;4807319;29;20480;-85
2022/05/11 03:02:21;;;;;;;6.70;3.40;;;;;;;14.22;64.34;101009.78;4807348;29;20037;-86
2022/05/11 03:05:06;;;;;;;8.50;3.23;;;;;;;14.21;64.39;101015.09;4807427;29;20030;-85
2022/05/11 03:07:31;;;;;;;6.00;3.00;;;;;;;14.26;64.72;101012.97;4807453;29;20041;-85
2022/05/11 03:10:10;;;;;;;5.75;3.00;;;;;;;14.84;64.53;101110.75;4807373;29;20388;-85
2022/05/11 03:12:35;;;;;;;6.82;3.25;;;;;;;14.66;65.00;101082.75;4807035;29;20050;-85
2022/05/11 03:15:16;;;;;;;6.43;3.35;;;;;;;14.84;64.96;101104.72;4807126;29;20066;-84
2022/05/11 03:17:41;;;;;;;5.78;3.33;;;;;;;14.82;64.93;101104.00;4807064;29;20460;-83
2022/05/11 03:20:26;;;;;;;7.35;3.17;;;;;;;14.13;64.92;100989.69;4807088;29;20070;-85
2022/05/11 03:23:09;;;;;;;7.03;3.58;;;;;;;14.88;65.26;101111.34;4806805;29;20507;-85
2022/05/11 03:25:38;;;;;;;5.90;3.10;;;;;;;14.12;65.08;100982.00;4806943;29;20510;-86
2022/05/11 03:28:18;;;;;;;6.15;2.97;;;;;;;14.46;65.57;101046.09;4806886;29;20034;-85
2022/05/11 03:31:02;;;;;;;6.40;3.17;;;;;;;14.74;64.97;101086.41;4791013;29;20353;-86
2022/05/11 03:36:37;;;;;;;4.95;3.13;;;;;;;14.52;65.43;101050.00;4807028;29;20522;-85
2022/05/11 03:39:02;;;;;;;7.00;3.03;;;;;;;14.18;65.20;100999.75;4806724;29;20038;-85
2022/05/11 03:41:28;;;;;;;6.88;3.30;;;;;;;14.00;65.17;100963.00;4806919;29;20031;-85
2022/05/11 03:43:59;;;;;;;8.18;3.38;;;;;;;14.43;65.25;101037.66;4806441;29;20029;-86
2022/05/11 03:46:31;;;;;;;8.15;3.33;;;;;;;13.93;65.14;100956.59;4806653;29;20031;-84
2022/05/11 03:48:56;;;;;;;;;;;;;;;15.24;64.67;101151.94;4807051;29;20082;-84
2022/05/11 03:51:23;;;;;;;5.20;3.20;;;;;;;14.37;65.83;101019.97;4806472;29;19948;-85
2022/05/11 03:54:03;;;;;;;6.32;3.22;;;;;;;14.79;65.62;101086.06;4806778;29;20038;-84
2022/05/11 03:56:34;;;;;;;4.55;2.83;;;;;;;13.78;65.59;100930.03;4806602;29;20038;-86
2022/05/11 03:59:00;;;;;;;;;;;;;;;15.19;64.91;101152.28;4806644;29;20031;-85
2022/05/11 04:01:31;;;;;;;4.93;3.05;;;;;;;13.94;65.36;100963.44;4806500;29;20338;-85
2022/05/11 04:04:04;;;;;;;5.47;2.90;;;;;;;13.93;65.74;100967.81;4806411;29;20031;-86
2022/05/11 04:07:09;;;;;;;7.30;3.05;;;;;;;15.03;65.70;101151.78;4806490;29;20038;-85
2022/05/11 04:09:35;;;;;;;5.35;3.13;;;;;;;14.28;65.93;101030.09;4806391;29;20034;-85
2022/05/11 04:12:07;;;;;;;6.82;2.92;;;;;;;14.55;65.98;101075.75;4806087;29;20091;-85
2022/05/11 04:14:50;;;;;;;10.60;3.22;;;;;;;14.57;65.99;101071.28;4805968;29;20055;-86
2022/05/11 04:17:31;;;;;;;5.80;2.75;;;;;;;14.10;66.00;100997.72;4806394;29;20038;-84
2022/05/11 04:20:23;;;;;;;4.95;2.75;;;;;;;15.07;66.05;101137.63;4806122;29;20039;-86
2022/05/11 04:25:47;;;;;;;6.30;2.80;;;;;;;13.89;65.93;100948.22;4750655;30;19925;-86
2022/05/11 04:29:14;;;;;;;4.60;2.75;;;;;;;14.67;66.04;101072.22;4750176;30;20208;-86
2022/05/11 04:31:35;;;;;;;7.15;3.40;;;;;;;14.08;65.83;100960.66;4743768;30;20493;-85
2022/05/11 04:34:06;;;;;;;6.45;3.05;;;;;;;13.98;65.88;100942.34;4749796;30;20135;-86
2022/05/11 04:36:49;;;;;;;5.68;3.28;;;;;;;14.12;66.02;100951.66;4750357;30;20077;-85
2022/05/11 04:42:46;;;;;;;7.22;3.35;;;;;;;14.26;65.29;100950.66;4750561;30;20074;-84
2022/05/11 04:45:14;;;;;;;7.22;3.60;;;;;;;14.38;65.36;100967.06;4749988;30;20039;-85
2022/05/11 04:47:45;;;;;;;5.43;3.20;;;;;;;14.31;65.33;100949.31;4750120;30;20084;-85
2022/05/11 04:54:12;;;;;;;4.97;3.00;;;;;;;14.54;65.20;100973.56;4749921;29;20040;-83
2022/05/11 04:56:43;;;;;;;9.00;3.40;;;;;;;14.48;64.82;100955.88;4750004;30;20095;-86
2022/05/11 04:59:50;;;;;;;9.43;3.42;;;;;;;14.50;64.65;100964.38;4765953;29;20050;-85
2022/05/11 05:02:24;;;;;;;8.38;3.15;;;;;;;14.76;64.65;100993.53;4805217;29;20031;-85
2022/05/11 05:05:51;;;;;;;5.55;3.28;;;;;;;15.75;64.59;101147.03;4805409;29;20485;-86
2022/05/11 05:08:16;;;;;;;8.13;3.35;;;;;;;15.40;64.33;101078.69;4805548;29;20088;-85
2022/05/11 05:10:54;;;;;;;4.68;3.10;;;;;;;14.68;64.29;100943.09;4805591;29;20038;-85
2022/05/11 05:13:31;;;;;;;6.72;3.83;;;;;;;14.74;63.99;100946.03;4805392;29;20479;-85
2022/05/11 05:19:58;;;;;;;6.50;3.10;;;;;;;15.19;63.67;100990.97;4805611;29;20050;-86
2022/05/11 05:22:42;;;;;;;6.28;3.58;;;;;;;16.23;63.36;101148.44;4748600;30;20797;-85
2022/05/11 05:26:27;;;;;;;7.68;3.53;;;;;;;16.33;63.00;101152.75;4714729;30;20056;-84
2022/05/11 05:32:37;;;;;;;5.72;3.40;;;;;;;16.44;62.38;101158.88;4714776;30;20060;-86
2022/05/11 05:35:41;;;;;;;8.32;3.75;;;;;;;16.74;61.94;101163.34;4714489;30;20112;-85
2022/05/11 05:41:52;;;;;;;8.85;3.75;;;;;;;17.54;57.52;100979.81;4614100;30;20040;-86
2022/05/11 05:44:31;;;;;;;5.78;3.33;;;;;;;19.39;53.94;101097.66;4612377;31;20043;-86
2022/05/11 05:49:50;;;;;;;7.13;3.00;;;;;;;21.35;46.59;101015.03;4612439;31;20051;-85
2022/05/11 05:52:39;;;;;;;8.20;3.10;;;;;;;21.80;45.20;101001.41;4611991;31;20079;-85
2022/05/11 05:55:15;;;;;;;5.72;2.90;;;;;;;22.31;43.98;100986.22;4620664;31;20069;-86
2022/05/11 05:57:53;;;;;;;7.93;3.38;;;;;;;23.62;41.60;101095.31;4629973;31;20035;-84
2022/05/11 06:00:40;;;;;;;5.20;2.70;;;;;;;24.73;40.94;101162.50;4629012;30;20111;-83
2022/05/11 06:03:45;;;;;;;6.72;2.80;;;;;;;24.70;40.30;101166.31;4628743;31;20040;-85
2022/05/11 06:06:29;;;;;;;6.68;3.05;;;;;;;23.29;39.70;100986.59;4628629;31;20063;-85
2022/05/11 06:09:09;;;;;;;5.43;2.75;;;;;;;24.70;40.31;101110.88;4629056;31;20051;-83
2022/05/11 06:11:37;;;;;;;7.60;2.75;;;;;;;24.46;37.45;101063.59;4628753;30;20569;-86
2022/05/11 06:14:06;;;;;;;7.53;3.25;;;;;;;24.70;38.07;101102.94;4634468;30;20125;-83
2022/05/11 06:16:47;;;;;;;4.80;2.50;;;;;;;24.68;37.77;101024.88;4648992;30;20058;-84
2022/05/11 06:19:19;;;;;;;5.40;2.22;;;;;;;25.19;36.50;101085.69;4779510;30;20400;-88
2022/05/11 06:22:03;;;;;;;5.55;2.70;;;;;;;25.02;36.56;100982.84;4790112;30;20115;-82
2022/05/11 06:24:38;;;;;;;4.60;2.47;;;;;;;25.21;35.06;100981.44;4819544;29;20115;-85
2022/05/11 06:27:20;;;;;;;7.18;2.30;;;;;;;26.43;35.23;101142.66;4826397;29;20490;-86
2022/05/11 06:30:00;;;;;;;6.13;2.58;;;;;;;26.48;34.96;101141.09;4825457;29;20045;-86
2022/05/11 06:32:26;;;;;;;5.63;2.30;;;;;;;26.71;32.84;101134.72;4825882;29;20030;-84
2022/05/11 06:35:00;;;;;;;6.18;2.30;;;;;;;26.21;33.97;101028.84;4826040;29;20095;-85
2022/05/11 06:37:32;;;;;;;6.25;2.28;;;;;;;26.46;32.65;101041.66;4825787;29;20109;-83
2022/05/11 06:40:09;;;;;;;6.55;2.47;;;;;;;26.72;32.53;101075.41;4825956;29;20041;-83
2022/05/11 06:42:38;;;;;;;7.43;2.50;;;;;;;26.94;32.45;101124.66;4825824;29;20110;-85
2022/05/11 06:45:19;;;;;;;5.40;2.20;;;;;;;26.40;33.26;101080.31;4825600;29;20070;-85
2022/05/11 06:48:03;;;;;;;7.85;2.15;;;;;;;26.37;33.32;101128.38;4825495;29;20030;-85
2022/05/11 06:50:44;;;;;;;5.47;1.85;;;;;;;25.31;33.58;101013.66;4787288;30;20108;-84
2022/05/11 06:53:25;;;;;;;6.15;2.35;;;;;;;24.36;32.94;100960.09;4787560;30;20043;-85
2022/05/11 06:59:20;;;;;;;6.60;2.35;;;;;;;22.27;37.48;101011.25;4787579;30;20105;-84
2022/05/11 07:01:49;;;;;;;8.05;2.67;;;;;;;22.53;37.98;101143.44;4787006;30;20496;-84
2022/05/11 07:04:14;;;;;;;7.55;2.45;;;;;;;21.84;39.57;101136.00;4787120;30;20531;-83
2022/05/11 07:06:43;;;;;;;9.73;2.28;;;;;;;21.57;40.48;101139.72;4787114;30;20059;-85
2022/05/11 07:09:18;;;;;;;4.45;2.00;;;;;;;21.23;41.09;101151.06;4787248;30;20510;-85
2022/05/11 07:14:27;;;;;;;6.75;2.42;;;;;;;20.39;40.70;100996.94;4787291;30;20105;-85
2022/05/11 07:17:02;;;;;;;8.77;2.47;;;;;;;20.88;40.86;101076.75;4786956;30;20114;-86
2022/05/11 07:19:28;;;;;;;6.15;2.10;;;;;;;20.51;40.08;100958.16;4787078;30;20031;-85
2022/05/11 07:21:54;;;;;;;5.43;1.90;;;;;;;20.96;40.43;101010.34;4787034;30;20058;-85
2022/05/11 07:24:23;;;;;;;7.30;2.63;;;;;;;20.77;41.33;101021.09;4786589;29;20091;-86
2022/05/11 07:26:49;;;;;;;5.60;2.28;;;;;;;20.28;41.18;100965.75;4787769;29;20537;-84
2022/05/11 07:29:17;;;;;;;9.25;2.75;;;;;;;19.97;42.18;100968.03;4824972;29;20109;-84
2022/05/11 07:31:45;;;;;;;6.93;2.55;;;;;;;20.45;42.76;101053.22;4824754;29;20030;-83
2022/05/11 07:34:28;;;;;;;5.47;2.65;;;;;;;19.85;43.03;100977.91;4824727;29;20030;-81
2022/05/11 07:36:54;;;;;;;8.68;3.30;;;;;;;19.33;43.85;100977.78;4808847;29;20436;-82
2022/05/11 07:39:42;;;;;;;11.07;3.00;;;;;;;20.19;44.96;101153.66;4824781;29;20034;-83
2022/05/11 07:42:08;;;;;;;8.30;2.42;;;;;;;19.03;46.90;100997.28;4824822;29;20121;-85
2022/05/11 07:44:43;;;;;;;6.93;3.03;;;;;;;18.97;47.67;100990.00;4824587;29;20050;-83
2022/05/11 07:47:17;;;;;;;7.93;2.50;;;;;;;19.90;50.38;101117.19;4824839;29;20455;-83
2022/05/11 07:49:43;;;;;;;6.05;2.88;;;;;;;20.05;50.26;101146.31;4824875;29;20034;-83
2022/05/11 07:52:08;;;;;;;8.65;3.08;;;;;;;19.80;51.38;101105.16;4824744;29;20054;-82
2022/05/11 07:54:34;;;;;;;6.10;3.17;;;;;;;19.48;49.15;101054.88;4824719;29;20022;-83
2022/05/11 07:59:56;;;;;;;7.25;3.28;;;;;;;19.22;49.09;101040.84;4824693;29;20053;-84
2022/05/11 08:02:26;;;;;;;;;;;;;;;20.02;47.95;101165.81;4824857;29;20045;-83
2022/05/11 08:04:52;;;;;;;10.63;3.87;;;;;;;19.53;47.31;101091.09;4808906;29;19959;-83
2022/05/11 08:07:52;;;;;;;9.70;3.45;;;;;;;20.21;48.18;101156.97;4824422;29;20066;-83
2022/05/11 08:10:21;;;;;;;9.18;3.35;;;;;;;20.32;47.27;101143.59;4768365;30;20113;-82
2022/05/11 08:12:53;;;;;;;9.68;2.72;;;;;;;20.28;45.61;101113.44;4768212;30;20115;-82
2022/05/11 08:15:21;;;;;;;7.97;2.75;;;;;;;20.13;46.58;101059.03;4768543;30;20048;-81
2022/05/11 08:17:48;;;;;;;6.95;2.58;;;;;;;20.68;47.05;101153.25;4768747;30;20040;-83
2022/05/11 08:20:18;;;;;;;6.47;2.28;;;;;;;20.34;45.31;101068.22;4767733;30;20044;-82
2022/05/11 08:22:51;;;;;;;6.43;2.60;;;;;;;20.25;46.24;101079.63;4767715;30;20063;-82
2022/05/11 08:28:31;;;;;;;5.30;2.28;;;;;;;20.02;44.07;100966.56;4768184;30;20047;-82
2022/05/11 08:33:41;;;;;;;7.65;2.70;;;;;;;21.35;43.51;101136.72;4768181;30;20064;-82
2022/05/11 08:36:10;;;;;;;7.97;2.10;;;;;;;21.50;43.29;101136.09;4767752;30;20408;-81
2022/05/11 08:38:39;;;;;;;10.20;2.30;;;;;;;21.38;42.91;101075.13;4767464;30;20054;-84
2022/05/11 08:41:41;;;;;;;8.13;2.88;;;;;;;21.65;42.88;101134.50;4767894;30;20421;-81
2022/05/11 08:44:14;;;;;;;9.15;2.65;;;;;;;21.36;44.33;101133.09;4767913;30;20043;-83
2022/05/11 08:46:47;;;;;;;8.95;2.30;;;;;;;21.26;42.51;101139.44;4796294;29;20072;-81
2022/05/11 08:49:31;;;;;;;8.27;2.30;;;;;;;21.37;44.27;101139.19;4823956;29;20372;-82
2022/05/11 08:52:02;;;;;;;12.93;3.00;;;;;;;21.13;42.77;101106.53;4823810;29;20530;-82
2022/05/11 08:54:48;;;;;;;7.78;2.20;;;;;;;21.10;44.18;101077.16;4823704;29;20475;-84
2022/05/11 08:57:23;;;;;;;9.82;2.72;;;;;;;21.62;45.15;101111.13;4808238;29;20504;-82
2022/05/11 08:59:52;;;;;;;8.57;2.80;;;;;;;21.52;46.18;101097.31;4823782;29;20503;-82
2022/05/11 09:02:43;;;;;;;7.78;2.85;;;;;;;21.50;43.47;101117.69;4823577;29;20027;-82
2022/05/11 09:05:08;;;;;;;10.50;3.10;;;;;;;21.35;42.67;101122.75;4823711;29;20491;-81
2022/05/11 09:07:39;;;;;;;9.73;2.90;;;;;;;21.20;44.00;101133.81;4823668;29;20030;-81
2022/05/11 09:10:05;;;;;;;12.10;3.25;;;;;;;21.13;43.47;101132.78;4823824;29;20083;-83
2022/05/11 09:12:31;;;;;;;9.45;2.50;;;;;;;20.83;45.51;101115.75;4823655;29;20119;-80
2022/05/11 09:14:59;;;;;;;7.22;3.13;;;;;;;20.78;44.90;101120.66;4823509;29;20056;-83
2022/05/11 09:17:28;;;;;;;9.20;3.28;;;;;;;21.00;44.61;101129.78;4823654;29;20030;-84
2022/05/11 09:19:59;;;;;;;7.63;3.00;;;;;;;20.78;43.84;101097.03;4823491;29;20031;-83
2022/05/11 09:22:25;;;;;;;7.82;3.40;;;;;;;20.80;45.06;101063.59;4807277;29;20170;-81
2022/05/11 09:24:53;;;;;;;8.25;3.08;;;;;;;21.11;43.04;101087.50;4804008;29;20055;-85
2022/05/11 09:27:32;;;;;;;8.43;3.20;;;;;;;21.51;43.22;101114.06;4805370;29;20483;-83
2022/05/11 09:30:14;;;;;;;9.10;3.10;;;;;;;21.25;44.10;101087.88;4805578;29;20031;-80
2022/05/11 09:32:42;;;;;;;8.07;2.95;;;;;;;21.68;43.09;101115.75;4805160;29;20535;-79
2022/05/11 09:35:14;;;;;;;11.68;3.63;;;;;;;21.96;42.67;101129.44;4805174;29;20038;-80
2022/05/11 09:37:42;;;;;;;10.85;3.83;;;;;;;22.13;42.69;101114.53;4805110;29;20062;-80
2022/05/11 09:40:16;;;;;;;12.15;3.38;;;;;;;22.26;43.44;101114.84;4804959;29;20037;-80
2022/05/11 09:42:52;;;;;;;8.63;3.88;;;;;;;22.13;42.16;101096.13;4805278;29;20027;-79
2022/05/11 09:45:39;;;;;;;10.63;3.80;;;;;;;22.11;43.36;101111.22;4805166;29;20039;-78
2022/05/11 09:48:23;;;;;;;9.82;3.70;;;;;;;22.02;42.67;101103.31;4805832;29;20111;-78
2022/05/11 09:50:54;;;;;;;8.45;3.80;;;;;;;21.85;42.84;101104.28;4808481;29;20073;-79
2022/05/11 09:53:19;;;;;;;;;;;;;;;21.87;43.00;101094.44;4808968;29;20031;-80
2022/05/11 09:55:44;;;;;;;6.27;3.20;;;;;;;21.61;43.51;101072.72;4808521;29;19917;-78
2022/05/11 09:58:10;;;;;;;9.30;4.07;;;;;;;21.67;43.06;101077.31;4808402;29;20365;-79
2022/05/11 10:00:40;;;;;;;9.88;3.80;;;;;;;21.77;45.40;101097.22;4808353;29;20053;-79
2022/05/11 10:03:14;;;;;;;10.43;4.10;;;;;;;21.67;44.55;101090.47;4808010;29;20027;-82
2022/05/11 10:05:44;;;;;;;9.38;4.00;;;;;;;21.64;44.81;101103.94;4808411;29;20429;-80
2022/05/11 10:08:32;;;;;;;12.93;5.03;;;;;;;21.58;43.52;101102.78;4808050;29;20091;-79
2022/05/11 10:11:08;;;;;;;13.40;4.75;;;;;;;21.26;44.07;101084.28;4808323;29;20045;-78
2022/05/11 10:21:50;;;;;;;10.63;4.93;;;;;;;21.49;44.50;101111.63;4808068;29;20382;-77
2022/05/11 10:22:33;;;;;;;8.35;4.00;;;;;;;22.02;44.16;101100.69;4808134;29;20050;-80
2022/05/11 10:25:16;;;;;;;13.88;4.47;;;;;;;21.95;43.90;101096.25;4808268;29;20077;-79
2022/05/11 10:27:55;;;;;;;10.68;4.55;;;;;;;21.79;43.68;101098.84;4807939;29;20035;-79
2022/05/11 10:30:32;;;;;;;7.60;4.05;;;;;;;21.61;43.90;101094.56;4791261;29;20449;-77
2022/05/11 10:33:21;;;;;;;11.32;4.18;;;;;;;21.48;44.49;101100.28;4807950;29;20103;-77
2022/05/11 10:36:12;;;;;;;9.23;4.07;;;;;;;21.43;44.67;101092.06;4807725;29;20027;-79
2022/05/11 10:39:00;;;;;;;9.95;4.20;;;;;;;21.52;44.40;101085.00;4807512;29;20030;-79
2022/05/11 10:41:43;;;;;;;10.88;3.90;;;;;;;21.59;44.73;101085.19;4808006;29;20027;-80
2022/05/11 10:44:47;;;;;;;7.68;3.53;;;;;;;21.56;44.92;101085.53;4807668;29;20046;-77
2022/05/11 10:47:38;;;;;;;7.05;3.80;;;;;;;21.59;45.39;101080.75;4805135;29;20049;-75
2022/05/11 10:50:16;;;;;;;;;;;;;;;21.61;44.52;101076.16;4805917;29;20038;-83
2022/05/11 10:52:50;;;;;;;8.23;4.00;;;;;;;21.50;45.46;101079.09;4805585;29;19924;-84
2022/05/11 10:55:35;;;;;;;8.07;4.40;;;;;;;21.47;44.76;101077.63;4805517;29;20043;-82
2022/05/11 10:58:16;;;;;;;10.15;4.10;;;;;;;21.48;44.43;101066.13;4805346;29;20135;-84
2022/05/11 11:00:46;;;;;;;;;;;;;;;21.64;45.01;101061.88;4804810;29;20133;-81
2022/05/11 11:03:44;;;;;;;9.77;4.00;;;;;;;21.35;44.07;101023.75;4805179;29;19961;-85
2022/05/11 11:09:16;;;;;;;11.23;3.90;;;;;;;21.57;44.95;101066.16;4805221;29;20038;-82
2022/05/11 11:11:44;;;;;;;14.07;3.55;;;;;;;21.65;44.84;101064.34;4805227;29;20054;-82
2022/05/11 11:14:11;;;;;;;7.57;3.58;;;;;;;21.63;43.70;101039.19;4805026;29;20060;-84
2022/05/11 11:16:39;;;;;;;8.88;4.20;;;;;;;21.61;43.63;101060.38;4804984;29;20039;-81
2022/05/11 11:19:06;;;;;;;8.48;4.10;;;;;;;21.68;43.82;101056.13;4804765;29;20440;-82
2022/05/11 11:21:32;;;;;;;6.75;3.60;;;;;;;21.54;44.25;101004.22;4804945;29;20403;-81
2022/05/11 11:24:22;;;;;;;9.88;3.65;;;;;;;21.93;44.38;101037.75;4816867;29;20050;-81
2022/05/11 11:26:58;;;;;;;7.43;4.03;;;;;;;22.09;43.15;101047.44;4825210;29;20038;-82
2022/05/11 11:29:25;;;;;;;7.97;4.20;;;;;;;22.01;42.58;101042.97;4825014;29;20045;-81
2022/05/11 11:31:56;;;;;;;6.93;3.40;;;;;;;22.02;43.96;101039.34;4824990;29;20515;-81
2022/05/11 11:34:25;;;;;;;9.48;3.40;;;;;;;22.01;41.92;101049.06;4825273;29;20031;-82
2022/05/11 11:36:52;;;;;;;8.68;3.42;;;;;;;22.10;42.50;101049.91;4824861;29;20042;-82
2022/05/11 11:39:53;;;;;;;7.15;3.08;;;;;;;22.09;42.45;101040.38;4824807;29;20038;-81
2022/05/11 11:42:51;;;;;;;5.82;2.97;;;;;;;22.16;42.79;101038.72;4824783;29;20360;-84
2022/05/11 11:45:29;;;;;;;6.70;3.13;;;;;;;22.21;42.25;101019.78;4768812;30;20043;-83
2022/05/11 11:48:17;;;;;;;8.98;3.28;;;;;;;22.32;42.38;101022.91;4768470;30;20054;-83
2022/05/11 11:50:43;;;;;;;7.97;2.90;;;;;;;22.39;40.81;101020.41;4768450;30;20137;-81
2022/05/11 11:53:21;;;;;;;7.53;3.13;;;;;;;22.49;42.04;101026.31;4768565;30;20119;-84
2022/05/11 11:55:48;;;;;;;8.35;3.60;;;;;;;22.33;40.90;101029.00;4768454;30;20131;-81
2022/05/11 11:58:45;;;;;;;8.70;3.53;;;;;;;22.43;42.22;101027.00;4768591;30;20075;-81
2022/05/11 12:01:20;;;;;;;7.68;3.20;;;;;;;22.03;40.14;100964.75;4733122;30;20036;-81
2022/05/11 12:03:57;;;;;;;8.57;3.58;;;;;;;22.29;40.78;101017.97;4733081;30;20127;-84
2022/05/11 12:15:27;;;;;;;10.82;3.00;;;;;;;22.40;40.59;101006.25;4663807;30;20101;-82
2022/05/11 12:17:52;;;;;;;7.68;2.88;;;;;;;22.13;40.96;100956.72;4663745;30;20116;-83
2022/05/11 12:20:22;;;;;;;8.05;3.03;;;;;;;22.38;41.00;100976.69;4663428;30;20054;-83
2022/05/11 12:22:55;;;;;;;10.60;3.10;;;;;;;22.68;40.80;101008.47;4663382;30;20104;-82
2022/05/11 12:25:23;;;;;;;7.45;3.30;;;;;;;22.63;40.30;100984.50;4663601;30;20051;-85
2022/05/11 12:27:49;;;;;;;7.88;2.80;;;;;;;22.59;40.11;100989.25;4663494;30;20125;-81
2022/05/11 12:30:23;;;;;;;9.63;3.00;;;;;;;22.60;40.95;100965.38;4663542;30;20042;-82
2022/05/11 12:32:50;;;;;;;6.53;3.00;;;;;;;22.70;39.17;100988.06;4677543;30;20038;-84
2022/05/11 12:35:29;;;;;;;8.52;2.85;;;;;;;22.68;40.47;100980.34;4663563;30;20084;-82
2022/05/11 12:38:14;;;;;;;10.35;2.80;;;;;;;22.42;39.26;100930.63;4713674;30;20111;-82
2022/05/11 12:40:48;;;;;;;7.30;3.28;;;;;;;22.82;39.53;100991.97;4714899;30;20057;-86
2022/05/11 12:43:34;;;;;;;8.45;2.80;;;;;;;22.28;39.34;100897.94;4715202;30;20033;-84
2022/05/11 12:46:03;;;;;;;9.45;3.13;;;;;;;22.77;38.30;100991.66;4720652;30;20044;-84
2022/05/11 12:48:41;;;;;;;8.57;3.00;;;;;;;22.54;38.67;100950.31;4732830;30;20500;-85
2022/05/11 12:51:13;;;;;;;6.75;3.05;;;;;;;22.84;39.62;100979.47;4732207;30;20519;-83
2022/05/11 12:53:51;;;;;;;8.90;3.05;;;;;;;22.88;39.27;100983.41;4824044;29;20034;-86
2022/05/11 12:56:20;;;;;;;7.40;2.95;;;;;;;22.71;38.96;100944.94;4823836;29;20061;-86
2022/05/11 12:58:52;;;;;;;5.88;2.75;;;;;;;22.94;39.60;100974.81;4823787;29;20125;-83
2022/05/11 13:01:21;;;;;;;6.97;2.50;;;;;;;23.02;39.52;100973.94;4823863;29;20478;-86
2022/05/11 13:03:50;;;;;;;8.75;2.67;;;;;;;22.68;38.92;100901.38;4823687;29;20041;-84
2022/05/11 13:06:53;;;;;;;8.02;2.75;;;;;;;23.25;38.69;100981.84;4823811;29;20083;-86
2022/05/11 13:09:24;;;;;;;6.60;3.03;;;;;;;23.27;39.18;100966.69;4823797;29;20034;-86
2022/05/11 13:11:50;;;;;;;8.32;2.30;;;;;;;23.14;38.86;100965.47;4823787;29;20038;-85
2022/05/11 13:14:28;;;;;;;10.25;3.22;;;;;;;22.99;39.09;100975.09;4823593;29;20037;-86